createdAt,value
2023-02-09T00:02:08.080Z,-6.26
2023-02-09T00:07:15.419Z,-6.22
2023-02-09T00:12:40.491Z,-6.16
2023-02-09T00:17:47.742Z,-6.17
2023-02-09T00:22:54.833Z,-6.23
2023-02-09T00:28:02.576Z,-6.32
2023-02-09T00:33:10.614Z,-6.39
2023-02-09T00:38:18.520Z,-6.46
2023-02-09T00:43:27.405Z,-6.51
2023-02-09T00:48:34.794Z,-6.49
2023-02-09T00:53:41.989Z,-6.45
2023-02-09T00:58:49.412Z,-6.41
2023-02-09T01:03:55.532Z,-6.41
2023-02-09T01:09:02.837Z,-6.39
2023-02-09T01:14:12.311Z,-6.39
2023-02-09T01:19:20.945Z,-6.42
2023-02-09T01:24:29.584Z,-6.47
2023-02-09T01:29:35.180Z,-6.52
2023-02-09T01:34:42.965Z,-6.57
2023-02-09T01:39:50.654Z,-6.57
2023-02-09T01:45:23.657Z,-6.51
2023-02-09T01:50:34.839Z,-6.45
2023-02-09T01:55:48.859Z,-6.46
2023-02-09T02:00:57.518Z,-6.51
2023-02-09T02:06:10.273Z,-6.62
2023-02-09T02:11:18.247Z,-6.75
2023-02-09T02:16:48.074Z,-6.91
2023-02-09T02:22:18.317Z,-7.06
2023-02-09T02:27:39.837Z,-7.21
2023-02-09T02:33:00.800Z,-7.33
2023-02-09T02:38:17.497Z,-7.34
2023-02-09T02:43:37.854Z,-7.27
2023-02-09T02:48:50.134Z,-7.16
2023-02-09T02:54:01.892Z,-7.05
2023-02-09T02:59:15.965Z,-6.90
2023-02-09T03:04:24.136Z,-6.78
2023-02-09T03:09:31.283Z,-6.83
2023-02-09T03:14:49.458Z,-6.92
2023-02-09T03:20:06.002Z,-7.06
2023-02-09T03:25:17.261Z,-7.21
2023-02-09T03:30:25.913Z,-7.38
2023-02-09T03:35:40.972Z,-7.57
2023-02-09T03:40:48.089Z,-7.71
2023-02-09T03:45:55.179Z,-7.78
2023-02-09T03:51:03.457Z,-7.80
2023-02-09T03:56:10.630Z,-7.84
2023-02-09T04:01:17.778Z,-7.83
2023-02-09T04:06:25.040Z,-7.71
2023-02-09T04:11:32.296Z,-7.60
2023-02-09T04:16:39.443Z,-7.53
2023-02-09T04:21:46.500Z,-7.57
2023-02-09T04:26:53.715Z,-7.69
2023-02-09T04:32:00.928Z,-7.86
2023-02-09T04:37:08.423Z,-8.04
2023-02-09T04:42:15.567Z,-8.21
2023-02-09T04:47:22.742Z,-8.31
2023-02-09T04:52:29.879Z,-8.35
2023-02-09T04:57:54.439Z,-8.35
2023-02-09T05:03:01.559Z,-8.27
2023-02-09T05:08:09.642Z,-8.12
2023-02-09T05:13:16.949Z,-7.94
2023-02-09T05:18:24.692Z,-7.76
2023-02-09T05:23:32.269Z,-7.60
2023-02-09T05:28:39.427Z,-7.43
2023-02-09T05:33:46.561Z,-7.33
2023-02-09T05:38:53.813Z,-7.30
2023-02-09T05:44:01.162Z,-7.42
2023-02-09T05:49:08.571Z,-7.61
2023-02-09T05:54:15.731Z,-7.86
2023-02-09T05:59:23.369Z,-8.09
2023-02-09T06:04:30.910Z,-8.21
2023-02-09T06:09:38.126Z,-8.24
2023-02-09T06:14:45.271Z,-8.21
2023-02-09T06:19:52.397Z,-8.09
2023-02-09T06:24:59.612Z,-7.99
2023-02-09T06:30:08.377Z,-7.90
2023-02-09T06:35:15.797Z,-7.77
2023-02-09T06:40:21.698Z,-7.60
2023-02-09T06:45:28.909Z,-7.58
2023-02-09T06:50:36.559Z,-7.74
2023-02-09T06:55:43.962Z,-7.93
2023-02-09T07:00:51.065Z,-7.93
2023-02-09T07:06:03.603Z,-7.77
2023-02-09T07:11:13.093Z,-7.52
2023-02-09T07:16:20.333Z,-7.21
2023-02-09T07:21:27.533Z,-6.83
2023-02-09T07:26:34.869Z,-6.40
2023-02-09T07:31:43.472Z,-5.98
2023-02-09T07:36:50.873Z,-5.54
2023-02-09T07:41:58.462Z,-5.07
2023-02-09T07:47:10.142Z,-4.58
2023-02-09T07:52:18.277Z,-4.01
2023-02-09T07:57:25.435Z,-3.43
2023-02-09T08:02:37.707Z,-2.88
2023-02-09T08:07:45.318Z,-2.04
2023-02-09T08:13:02.752Z,-1.34
2023-02-09T08:18:13.822Z,-0.50
2023-02-09T08:23:26.718Z,0.50
2023-02-09T08:28:43.637Z,1.30
2023-02-09T08:33:52.986Z,2.19
2023-02-09T08:39:00.449Z,3.10
2023-02-09T08:44:10.872Z,4.11
2023-02-09T08:49:18.002Z,4.87
2023-02-09T08:54:25.645Z,5.57
2023-02-09T08:59:33.230Z,6.40
2023-02-09T09:04:40.340Z,7.16
2023-02-09T09:09:47.465Z,7.67
2023-02-09T09:14:54.693Z,7.83
2023-02-09T09:20:02.182Z,8.24
2023-02-09T09:25:10.256Z,8.70
2023-02-09T09:30:16.041Z,9.04
2023-02-09T09:35:23.284Z,9.19
2023-02-09T09:40:33.754Z,9.46
2023-02-09T09:45:41.815Z,9.06
2023-02-09T09:50:47.946Z,8.42
2023-02-09T09:55:59.627Z,8.38
2023-02-09T10:01:07.360Z,8.98
2023-02-09T10:06:18.767Z,9.53
2023-02-09T10:11:31.502Z,8.98
2023-02-09T10:16:39.354Z,8.55
2023-02-09T10:21:46.667Z,8.20
2023-02-09T10:27:08.930Z,7.58
2023-02-09T10:32:21.615Z,7.67
2023-02-09T10:37:37.233Z,6.68
2023-02-09T10:42:55.011Z,5.26
2023-02-09T10:48:09.943Z,4.30
2023-02-09T10:53:25.214Z,3.81
2023-02-09T10:58:34.693Z,3.37
2023-02-09T11:04:00.417Z,2.79
2023-02-09T11:09:15.222Z,2.27
2023-02-09T11:14:23.780Z,1.84
2023-02-09T11:19:56.251Z,1.37
2023-02-09T11:25:16.535Z,0.86
2023-02-09T11:30:38.204Z,0.53
2023-02-09T11:35:55.782Z,0.29
2023-02-09T11:41:25.619Z,0.10
2023-02-09T11:46:35.842Z,-0.08
2023-02-09T11:51:48.479Z,-0.16
2023-02-09T11:57:01.639Z,-0.12
2023-02-09T12:02:24.437Z,-0.04
2023-02-09T12:07:38.798Z,0.05
2023-02-09T12:12:50.641Z,0.23
2023-02-09T12:18:01.309Z,0.33
2023-02-09T12:23:20.456Z,0.34
2023-02-09T12:28:45.658Z,0.37
2023-02-09T12:34:28.683Z,0.44
2023-02-09T12:39:36.661Z,0.58
2023-02-09T12:44:54.503Z,0.70
2023-02-09T12:50:20.233Z,0.70
2023-02-09T12:55:28.189Z,0.70
2023-02-09T13:00:54.142Z,0.73
2023-02-09T13:06:03.311Z,0.78
2023-02-09T13:11:41.756Z,0.86
2023-02-09T13:17:20.224Z,0.96
2023-02-09T13:22:34.959Z,1.10
2023-02-09T13:27:49.507Z,1.19
2023-02-09T13:33:06.636Z,1.18
2023-02-09T13:38:19.062Z,1.15
2023-02-09T13:43:32.261Z,1.16
2023-02-09T13:48:41.150Z,1.18
2023-02-09T13:54:00.544Z,1.23
2023-02-09T13:59:08.505Z,1.23
2023-02-09T14:04:20.473Z,1.19
2023-02-09T14:09:32.577Z,1.16
2023-02-09T14:15:01.725Z,1.14
2023-02-09T14:20:24.754Z,1.13
2023-02-09T14:25:33.072Z,1.13
2023-02-09T14:30:50.971Z,1.10
2023-02-09T14:35:59.943Z,1.04
2023-02-09T14:46:51.859Z,0.94
2023-02-09T14:52:06.037Z,0.86
2023-02-09T14:57:15.211Z,0.81
2023-02-09T15:02:26.308Z,0.74
2023-02-09T15:07:37.271Z,0.69
2023-02-09T15:12:44.594Z,0.64
2023-02-09T15:17:54.364Z,0.57
2023-02-09T15:23:02.047Z,0.49
2023-02-09T15:28:17.349Z,0.37
2023-02-09T15:33:26.040Z,0.27
2023-02-09T15:38:33.457Z,0.17
2023-02-09T15:43:58.064Z,0.08
2023-02-09T15:49:06.101Z,-0.02
2023-02-09T15:54:19.535Z,-0.13
2023-02-09T15:59:26.804Z,-0.23
2023-02-09T16:04:34.087Z,-0.34
2023-02-09T16:09:43.628Z,-0.44
2023-02-09T16:14:52.935Z,-0.56
2023-02-09T16:20:00.515Z,-0.69
2023-02-09T16:25:08.590Z,-0.82
2023-02-09T16:30:21.020Z,-0.94
2023-02-09T16:35:28.190Z,-1.06
2023-02-09T16:40:36.287Z,-1.15
2023-02-09T16:46:00.854Z,-1.26
2023-02-09T16:51:13.838Z,-1.38
2023-02-09T16:56:22.189Z,-1.41
2023-02-09T17:01:29.295Z,-1.37
2023-02-09T17:06:37.538Z,-1.31
2023-02-09T17:11:45.043Z,-1.26
2023-02-09T17:16:53.062Z,-1.26
2023-02-09T17:22:00.463Z,-1.29
2023-02-09T17:27:07.711Z,-1.32
2023-02-09T17:32:17.730Z,-1.37
2023-02-09T17:37:24.988Z,-1.42
2023-02-09T17:42:32.553Z,-1.46
2023-02-09T17:47:40.688Z,-1.51
2023-02-09T17:52:48.693Z,-1.59
2023-02-09T17:57:59.808Z,-1.65
2023-02-09T18:03:07.480Z,-1.71
2023-02-09T18:08:14.818Z,-1.79
2023-02-09T18:13:24.420Z,-1.87
2023-02-09T18:18:31.558Z,-1.92
2023-02-09T18:23:39.497Z,-1.94
2023-02-09T18:28:47.595Z,-1.91
2023-02-09T18:33:54.812Z,-1.83
2023-02-09T18:39:02.289Z,-1.71
2023-02-09T18:44:09.404Z,-1.57
2023-02-09T18:49:16.560Z,-1.45
2023-02-09T18:54:23.666Z,-1.41
2023-02-09T18:59:34.544Z,-1.41
2023-02-09T19:04:42.352Z,-1.43
2023-02-09T19:09:48.128Z,-1.47
2023-02-09T19:14:55.545Z,-1.51
2023-02-09T19:20:04.029Z,-1.56
2023-02-09T19:25:11.802Z,-1.60
2023-02-09T19:30:25.118Z,-1.63
2023-02-09T19:35:32.344Z,-1.69
2023-02-09T19:40:42.398Z,-1.77
2023-02-09T19:45:58.447Z,-1.84
2023-02-09T19:51:06.958Z,-1.91
2023-02-09T19:56:18.073Z,-1.98
2023-02-09T20:01:27.151Z,-2.04
2023-02-09T20:06:35.053Z,-2.05
2023-02-09T20:11:42.327Z,-2.04
2023-02-09T20:16:49.612Z,-2.01
2023-02-09T20:21:56.812Z,-1.93
2023-02-09T20:27:04.252Z,-1.81
2023-02-09T20:32:11.955Z,-1.70
2023-02-09T20:37:19.086Z,-1.59
2023-02-09T20:42:44.126Z,-1.48
2023-02-09T20:47:52.012Z,-1.39
2023-02-09T20:52:59.325Z,-1.32
2023-02-09T20:58:06.495Z,-1.30
2023-02-09T21:03:14.027Z,-1.30
2023-02-09T21:08:22.770Z,-1.33
2023-02-09T21:13:30.167Z,-1.37
2023-02-09T21:18:38.314Z,-1.40
2023-02-09T21:23:45.992Z,-1.44
2023-02-09T21:28:56.263Z,-1.50
2023-02-09T21:34:03.538Z,-1.57
2023-02-09T21:39:11.157Z,-1.65
2023-02-09T21:44:18.552Z,-1.75
2023-02-09T21:49:28.066Z,-1.83
2023-02-09T21:54:35.227Z,-1.92
2023-02-09T21:59:42.621Z,-2.01
2023-02-09T22:04:51.108Z,-2.09
2023-02-09T22:09:58.360Z,-2.18
2023-02-09T22:15:05.885Z,-2.26
2023-02-09T22:20:14.352Z,-2.33
2023-02-09T22:25:22.837Z,-2.39
2023-02-09T22:30:30.095Z,-2.43
2023-02-09T22:35:41.170Z,-2.41
2023-02-09T22:40:48.313Z,-2.36
2023-02-09T22:45:59.164Z,-2.33
2023-02-09T22:51:06.793Z,-2.32
2023-02-09T22:56:14.480Z,-2.32
2023-02-09T23:01:22.061Z,-2.36
2023-02-09T23:06:31.290Z,-2.39
2023-02-09T23:11:38.904Z,-2.43
2023-02-09T23:16:47.444Z,-2.48
2023-02-09T23:21:55.054Z,-2.54
2023-02-09T23:27:02.253Z,-2.58
2023-02-09T23:32:09.552Z,-2.65
2023-02-09T23:37:19.089Z,-2.71
2023-02-09T23:42:31.043Z,-2.77
2023-02-09T23:47:38.392Z,-2.84
2023-02-09T23:52:45.531Z,-2.91
2023-02-09T23:57:52.643Z,-2.98
